Share

Asau, Samoa

Faleolo International (NSFA) Elev 16 ft | 13.83 °S, 172.01 °W | Change Station

Current weather conditions updated 27 minutes ago

Mostly Cloudy
Mostly Cloudy
77 °F
Feels Like 77 °F
N
6
Wind Variable Wind from SW
Sunrise 6:37 AM
Sunset 6:20 PM
Moon Waning Gibbous

Today is forecast to be nearly the same temperature as yesterday. A few thunderstorms possible.

Pressure 29.89 in
Visibility 6.2 miles
Clouds Scattered Clouds 2000 ft
Mostly Cloudy 13000 ft
Dew Point 75 °F
Humidity 94%
Rainfall 0.00 in
Snow Depth Not available.
UV 0 out of 16
Pollen Not available.
Air Quality Not available.
Flu Activity Not available.
METAR NSFA 211100Z 22005KT 9999 SCT020 BKN130 25/24 Q1012

More Conditions Fewer Conditions

Pressure 29.89 in
Visibility 6.2 miles
Clouds Scattered Clouds 2000 ft
Mostly Cloudy 13000 ft
Dew Point 75 °F
Humidity 94%
Rainfall 0.00 in
Snow Depth Not available.
UV 0 out of 16
Pollen Not available.
Air Quality Not available.
Flu Activity Not available.
METAR NSFA 211100Z 22005KT 9999 SCT020 BKN130 25/24 Q1012

More Conditions Fewer Conditions

10-Day Weather Forecast

Almanac

Astronomy

Apr. 22, 2014 Rise Set
Actual Time 6:37 AM WST 6:20 PM WST
Civil Twilight 6:15 AM WST 6:41 PM WST
Nautical Twilight 5:50 AM WST 7:07 PM WST
Astronomical Twilight 5:25 AM WST 7:32 PM WST
Moon No Moon Rise 12:38 PM WST (4/22)
Length of Visible Light 12h 26m
Length of Day
11h 42m
Tomorrow will be 0m 40s shorter.
Waning Gibbous, 60% of the Moon is Illuminated
Apr 21
Waning Gibbous
Apr 22
Last Quarter
Apr 29
New
May 6
First Quarter
May 14
Full

Yesterday's Extremes

Country Highs Country Lows

Community

  • Snowy Robin
    Snowy Robin
  • Sun Pillar and Geese
    Sun Pillar and Geese
  • Showers on the Way
    Showers on the Way
  • Easter Morning Fog
    Easter Morning Fog
  • Easter Dance
    Easter Dance

WunderPhotos

Upload Photos

1,703,591 photos uploaded!

Nearby

Snow Depth

Not available.

Coastal Water Temperatures

Place Temperature
No Stations Reporting

Earthquake Activity

City Distance Mag. Time & Date
No recent earthquake activity has been reported nearby.
Minimum magnitude displayed is 2.5.

Nearby Weather Stations

There are no personal weather stations in this area.

What do you think?

We're not finished. Please let us know what you like, what you don't like, and what you are still missing.